Time;durP1;ratioP1;P1;durP2;ratioP2;P2;SDS_P1;SDS_P2;PMS_P1;PMS_P2;Temp;Humidity;BMP_temperature;BMP_pressure;BME280_temperature;BME280_humidity;BME280_pressure;Samples;Min_cycle;Max_cycle;Signal;HPM_P1;HPM_P2
2023/06/13 00:02:19;;;;;;;7.47;5.80;;;20.60;57.30;;;;;;10542495;28;20209;-85
2023/06/13 00:07:23;;;;;;;5.50;5.00;;;20.50;57.90;;;;;;10542305;28;20212;-83
2023/06/13 00:12:26;;;;;;;7.70;6.60;;;20.40;58.30;;;;;;10530290;28;20208;-83
2023/06/13 00:17:29;;;;;;;5.20;4.77;;;20.40;58.10;;;;;;10542677;28;20250;-84
2023/06/13 00:22:33;;;;;;;6.03;5.53;;;20.40;57.30;;;;;;10542782;28;20312;-84
2023/06/13 00:27:35;;;;;;;5.90;5.50;;;20.30;58.10;;;;;;10540739;28;20726;-85
2023/06/13 00:32:37;;;;;;;5.27;4.87;;;20.30;58.00;;;;;;10540147;28;20651;-84
2023/06/13 00:37:42;;;;;;;5.27;4.87;;;20.30;58.00;;;;;;10538820;28;20203;-86
2023/06/13 00:42:44;;;;;;;5.40;5.00;;;20.20;58.10;;;;;;10549249;28;20288;-85
2023/06/13 00:47:49;;;;;;;5.20;4.80;;;20.20;57.90;;;;;;10559028;28;20586;-84
2023/06/13 00:52:53;;;;;;;5.90;5.40;;;20.00;58.10;;;;;;10536084;28;20654;-83
2023/06/13 00:57:56;;;;;;;5.53;5.13;;;19.90;58.40;;;;;;10537946;28;20192;-84
2023/06/13 01:03:00;;;;;;;5.63;5.23;;;19.90;59.30;;;;;;10520971;28;20224;-83
2023/06/13 01:08:07;;;;;;;7.00;5.67;;;19.80;59.20;;;;;;10524732;28;20404;-84
2023/06/13 01:13:16;;;;;;;5.67;5.27;;;19.70;58.90;;;;;;10524024;28;20287;-84
2023/06/13 01:18:24;;;;;;;5.33;4.90;;;19.70;59.40;;;;;;10522527;28;20246;-84
2023/06/13 01:23:37;;;;;;;5.30;4.90;;;19.70;59.80;;;;;;10500245;28;20228;-85
2023/06/13 01:28:43;;;;;;;6.00;5.50;;;19.60;59.70;;;;;;10516819;28;20224;-83
2023/06/13 01:33:46;;;;;;;5.30;4.80;;;19.60;60.00;;;;;;10530959;28;20204;-85
2023/06/13 01:38:48;;;;;;;5.50;5.10;;;19.60;60.20;;;;;;10522201;28;20224;-84
2023/06/13 01:43:52;;;;;;;5.50;5.00;;;19.50;60.30;;;;;;10524148;28;20849;-83
2023/06/13 01:49:12;;;;;;;5.53;5.13;;;19.50;60.20;;;;;;10529591;28;20533;-84
2023/06/13 01:54:20;;;;;;;5.90;4.90;;;19.50;60.80;;;;;;10536151;28;20196;-85
2023/06/13 01:59:26;;;;;;;7.00;5.40;;;19.50;60.10;;;;;;10530321;28;20205;-84
2023/06/13 02:04:28;;;;;;;5.47;5.03;;;19.50;60.70;;;;;;10526452;28;20379;-85
2023/06/13 02:09:31;;;;;;;5.63;5.20;;;19.50;60.80;;;;;;10532597;28;20223;-84
2023/06/13 02:14:36;;;;;;;6.30;5.80;;;19.50;61.70;;;;;;10529299;28;20221;-84
2023/06/13 02:19:38;;;;;;;7.30;4.47;;;19.50;60.60;;;;;;10538430;28;20212;-84
2023/06/13 02:24:41;;;;;;;4.77;4.37;;;19.50;59.60;;;;;;10530461;28;20253;-83
2023/06/13 02:29:45;;;;;;;5.47;5.07;;;19.50;59.50;;;;;;10539680;28;20228;-84
2023/06/13 02:34:47;;;;;;;5.67;5.17;;;19.50;59.70;;;;;;10540926;28;20200;-84
2023/06/13 02:39:50;;;;;;;5.33;4.80;;;19.50;59.80;;;;;;10541567;28;20704;-84
2023/06/13 02:44:54;;;;;;;5.83;4.70;;;19.60;59.50;;;;;;10542898;28;20196;-84
2023/06/13 02:49:56;;;;;;;5.13;4.70;;;19.60;59.10;;;;;;10542297;28;20216;-84
2023/06/13 02:55:00;;;;;;;7.40;4.50;;;19.60;58.60;;;;;;10549315;28;20209;-83
2023/06/13 03:00:08;;;;;;;4.80;4.50;;;19.60;60.60;;;;;;10534529;28;20224;-84
2023/06/13 03:05:14;;;;;;;5.23;4.80;;;19.50;59.70;;;;;;10535270;28;20193;-85
2023/06/13 03:10:16;;;;;;;6.53;4.80;;;19.50;59.90;;;;;;10535339;28;20238;-83
2023/06/13 03:15:20;;;;;;;5.10;4.60;;;19.50;59.00;;;;;;10533957;28;20585;-84
2023/06/13 03:20:23;;;;;;;5.40;4.90;;;19.50;59.90;;;;;;10535138;28;20209;-84
2023/06/13 03:25:25;;;;;;;5.17;4.77;;;19.50;59.40;;;;;;10548799;28;20240;-83
2023/06/13 03:30:29;;;;;;;5.60;5.20;;;19.50;58.70;;;;;;10538174;28;20231;-84
2023/06/13 03:35:31;;;;;;;4.57;4.17;;;19.50;59.90;;;;;;10551743;28;20553;-84
2023/06/13 03:40:33;;;;;;;4.80;4.37;;;19.50;59.80;;;;;;10541488;28;20220;-81
2023/06/13 03:45:37;;;;;;;5.27;4.80;;;19.50;59.40;;;;;;10530728;28;20307;-82
2023/06/13 03:50:39;;;;;;;4.67;4.30;;;19.50;58.60;;;;;;10529745;28;20256;-83
2023/06/13 03:55:44;;;;;;;5.10;4.70;;;19.40;59.30;;;;;;10535393;28;20254;-82
2023/06/13 04:00:50;;;;;;;5.30;4.90;;;19.40;59.20;;;;;;10530119;28;20208;-84
2023/06/13 04:05:52;;;;;;;5.10;4.60;;;19.40;59.00;;;;;;10541919;28;20201;-84
2023/06/13 04:10:55;;;;;;;5.13;4.63;;;19.50;59.30;;;;;;10526133;28;20304;-85
2023/06/13 04:15:58;;;;;;;5.00;4.60;;;19.40;59.60;;;;;;10527948;28;20197;-84
2023/06/13 04:21:01;;;;;;;4.67;4.27;;;19.40;59.60;;;;;;10532190;28;20208;-82
2023/06/13 04:26:03;;;;;;;5.03;4.60;;;19.40;60.00;;;;;;10534760;28;20204;-84
2023/06/13 04:31:08;;;;;;;4.33;4.00;;;19.40;59.60;;;;;;10528631;28;20219;-81
2023/06/13 04:36:13;;;;;;;4.77;4.47;;;19.40;60.10;;;;;;10535003;28;20240;-82
2023/06/13 04:41:15;;;;;;;4.47;4.17;;;19.40;58.50;;;;;;10542426;28;20893;-84
2023/06/13 04:46:18;;;;;;;6.50;4.63;;;19.40;59.50;;;;;;10543267;28;20551;-83
2023/06/13 04:51:21;;;;;;;4.40;4.10;;;19.40;58.80;;;;;;10544802;28;20216;-83
2023/06/13 04:56:23;;;;;;;5.43;5.03;;;19.40;59.90;;;;;;10540996;28;20193;-84
2023/06/13 05:01:27;;;;;;;4.60;4.20;;;19.40;59.40;;;;;;10548721;28;20216;-83
2023/06/13 05:06:30;;;;;;;4.67;4.27;;;19.40;59.30;;;;;;10523370;28;20207;-83
2023/06/13 05:11:32;;;;;;;4.37;3.97;;;19.40;58.60;;;;;;10538610;28;20299;-80
2023/06/13 05:16:35;;;;;;;4.63;3.93;;;19.40;58.90;;;;;;10544082;28;20207;-83
2023/06/13 05:21:38;;;;;;;6.20;3.77;;;19.40;59.10;;;;;;10553145;28;20706;-83
2023/06/13 05:26:40;;;;;;;4.80;4.20;;;19.50;57.30;;;;;;10539492;28;20200;-84
2023/06/13 05:31:43;;;;;;;4.20;3.80;;;19.50;57.60;;;;;;10551457;28;20200;-82
2023/06/13 05:36:46;;;;;;;5.07;4.77;;;19.50;56.70;;;;;;10587975;28;20199;-80
2023/06/13 05:41:48;;;;;;;4.00;3.50;;;19.50;55.00;;;;;;10565534;28;20507;-84
2023/06/13 05:46:51;;;;;;;4.13;3.60;;;19.50;55.80;;;;;;10543149;28;20208;-84
2023/06/13 05:51:53;;;;;;;4.37;4.03;;;19.50;55.90;;;;;;10545289;28;20232;-84
2023/06/13 05:56:55;;;;;;;8.03;3.67;;;19.60;54.60;;;;;;10543772;28;20640;-83
2023/06/13 06:01:59;;;;;;;4.10;3.77;;;19.60;55.80;;;;;;10548702;28;20248;-83
2023/06/13 06:07:01;;;;;;;3.80;3.60;;;19.60;56.00;;;;;;10557987;28;20283;-83
2023/06/13 06:12:03;;;;;;;5.00;4.50;;;19.70;53.10;;;;;;10536555;28;20216;-84
2023/06/13 06:17:07;;;;;;;3.17;2.97;;;19.80;53.10;;;;;;10548485;28;20219;-84
2023/06/13 06:22:09;;;;;;;4.23;3.90;;;19.90;51.80;;;;;;10549170;28;20634;-83
2023/06/13 06:27:12;;;;;;;4.43;4.03;;;19.90;51.40;;;;;;10535542;28;20195;-84
2023/06/13 06:32:15;;;;;;;4.63;3.10;;;19.90;51.60;;;;;;10547132;28;20305;-81
2023/06/13 06:37:17;;;;;;;4.70;4.30;;;19.90;52.60;;;;;;10544504;28;20618;-83
2023/06/13 06:42:19;;;;;;;4.40;3.93;;;20.10;51.60;;;;;;10548234;28;20588;-83
2023/06/13 06:47:43;;;;;;;3.87;3.57;;;20.30;50.70;;;;;;10556406;28;20201;-81
2023/06/13 06:52:45;;;;;;;4.10;3.80;;;20.70;51.20;;;;;;10556058;28;20196;-81
2023/06/13 06:57:47;;;;;;;4.50;3.60;;;21.00;50.60;;;;;;10549543;28;20604;-81
2023/06/13 07:02:51;;;;;;;3.80;3.60;;;21.30;49.70;;;;;;10520977;28;20223;-81
2023/06/13 07:07:53;;;;;;;4.23;3.90;;;21.60;49.30;;;;;;10560275;28;20193;-84
2023/06/13 07:12:56;;;;;;;3.90;3.60;;;21.90;48.00;;;;;;10544484;28;20203;-83
2023/06/13 07:18:00;;;;;;;4.10;3.53;;;22.20;49.50;;;;;;10541944;28;20227;-83
2023/06/13 07:23:02;;;;;;;3.80;3.57;;;22.60;49.40;;;;;;10535648;28;20216;-81
2023/06/13 07:28:05;;;;;;;4.63;4.23;;;23.10;48.00;;;;;;10549724;28;20228;-81
2023/06/13 07:33:08;;;;;;;3.97;3.70;;;23.50;47.50;;;;;;10525849;28;20204;-84
2023/06/13 07:38:10;;;;;;;5.20;4.00;;;23.90;45.70;;;;;;10543310;28;20216;-84
2023/06/13 07:43:13;;;;;;;4.13;3.63;;;24.40;46.90;;;;;;10536342;28;20200;-83
2023/06/13 07:48:16;;;;;;;3.97;3.50;;;24.90;46.50;;;;;;10544967;28;20399;-84
2023/06/13 07:53:18;;;;;;;3.30;3.10;;;25.50;46.20;;;;;;10545085;28;20216;-83
2023/06/13 07:58:21;;;;;;;4.30;3.90;;;26.00;45.40;;;;;;10541538;28;20212;-84
2023/06/13 08:03:24;;;;;;;3.10;2.90;;;26.20;42.60;;;;;;10534296;28;20189;-85
2023/06/13 08:08:26;;;;;;;5.83;3.30;;;26.60;43.60;;;;;;10553714;28;20213;-84
2023/06/13 08:13:29;;;;;;;3.83;3.60;;;27.10;43.20;;;;;;10553960;28;20275;-84
2023/06/13 08:18:32;;;;;;;4.03;3.37;;;27.50;41.60;;;;;;10527147;28;20220;-83
2023/06/13 08:23:34;;;;;;;7.17;3.57;;;27.90;41.20;;;;;;10536733;28;20227;-84
2023/06/13 08:28:36;;;;;;;4.27;3.83;;;28.30;41.20;;;;;;10551965;28;20240;-85
2023/06/13 08:33:40;;;;;;;3.60;3.40;;;28.50;41.20;;;;;;10534085;28;20200;-82
2023/06/13 08:38:42;;;;;;;4.33;3.50;;;28.70;41.70;;;;;;10545335;28;20713;-82
2023/06/13 08:43:45;;;;;;;3.70;3.40;;;28.90;41.30;;;;;;10550439;28;20222;-83
2023/06/13 08:48:49;;;;;;;3.50;3.27;;;29.10;41.40;;;;;;10554231;28;20277;-84
2023/06/13 08:53:53;;;;;;;5.17;4.00;;;29.30;39.40;;;;;;10544859;28;20192;-83
2023/06/13 08:58:58;;;;;;;5.40;4.13;;;29.30;39.10;;;;;;10545897;28;20212;-83
2023/06/13 09:04:02;;;;;;;5.57;4.00;;;29.50;39.70;;;;;;10546883;28;20204;-82
2023/06/13 09:09:07;;;;;;;4.40;4.00;;;29.80;39.50;;;;;;10532756;28;20225;-82
2023/06/13 09:14:10;;;;;;;3.97;3.67;;;30.00;39.00;;;;;;10537279;28;20195;-82
2023/06/13 09:19:13;;;;;;;3.90;3.70;;;30.30;37.90;;;;;;10543903;28;20230;-84
2023/06/13 09:24:16;;;;;;;3.63;3.43;;;30.60;37.80;;;;;;10543095;28;20200;-84
2023/06/13 09:29:19;;;;;;;4.20;3.80;;;31.00;38.30;;;;;;10540396;28;20281;-84
2023/06/13 09:34:22;;;;;;;4.23;3.80;;;31.40;39.10;;;;;;10552959;28;20188;-84
2023/06/13 09:39:27;;;;;;;5.57;3.83;;;32.10;37.00;;;;;;10528476;28;20315;-84
2023/06/13 09:44:33;;;;;;;3.50;3.20;;;32.80;36.00;;;;;;10550130;22;20319;-81
2023/06/13 09:49:38;;;;;;;3.80;3.50;;;33.60;34.20;;;;;;10489479;28;20625;-79
2023/06/13 09:54:43;;;;;;;3.80;3.50;;;34.40;33.50;;;;;;10489729;28;20220;-81
2023/06/13 09:59:48;;;;;;;3.13;2.90;;;35.40;33.60;;;;;;10500558;28;20193;-82
2023/06/13 10:04:54;;;;;;;6.65;3.45;;;36.60;32.70;;;;;;10491141;28;20240;-81
2023/06/13 10:09:58;;;;;;;3.40;3.20;;;37.70;31.20;;;;;;10504178;28;20209;-79
2023/06/13 10:15:04;;;;;;;3.40;3.05;;;38.70;30.30;;;;;;10507233;28;20319;-82
2023/06/13 10:20:11;;;;;;;3.75;3.45;;;39.50;30.40;;;;;;10505974;28;20674;-82
2023/06/13 10:25:18;;;;;;;4.03;3.60;;;39.90;28.60;;;;;;10505595;28;20219;-81
2023/06/13 10:30:37;;;;;;;6.67;3.93;;;37.90;28.80;;;;;;10496789;28;20220;-81
2023/06/13 10:36:02;;;;;;;4.07;3.77;;;35.20;30.60;;;;;;10494066;28;20217;-80
2023/06/13 10:41:35;;;;;;;4.10;3.80;;;33.00;32.90;;;;;;10486306;28;20545;-81
2023/06/13 10:46:38;;;;;;;3.73;3.53;;;31.40;33.30;;;;;;10503886;28;20575;-81
2023/06/13 10:51:43;;;;;;;6.30;3.70;;;30.20;35.00;;;;;;10503695;28;20282;-80
2023/06/13 10:56:45;;;;;;;4.20;3.90;;;29.20;35.20;;;;;;10498849;28;20200;-81
2023/06/13 11:01:48;;;;;;;4.17;3.60;;;28.50;37.10;;;;;;10503379;28;20757;-81
2023/06/13 11:06:52;;;;;;;3.60;3.40;;;27.80;37.40;;;;;;10503696;28;20660;-81
2023/06/13 11:11:56;;;;;;;3.93;3.63;;;27.40;37.70;;;;;;10504092;28;20221;-81
2023/06/13 11:16:58;;;;;;;6.10;4.10;;;27.10;39.30;;;;;;10493526;28;20283;-81
2023/06/13 11:22:14;;;;;;;4.93;4.27;;;26.80;38.60;;;;;;10492723;28;20274;-82
2023/06/13 11:27:16;;;;;;;3.37;3.17;;;26.50;39.80;;;;;;10504684;28;20589;-80
2023/06/13 11:32:19;;;;;;;9.07;4.47;;;26.30;38.10;;;;;;10500507;28;20225;-80
2023/06/13 11:37:29;;;;;;;6.00;3.80;;;26.10;38.20;;;;;;10492213;28;20221;-82
2023/06/13 11:42:31;;;;;;;4.33;4.03;;;25.90;38.50;;;;;;10508059;28;20217;-81
2023/06/13 11:47:33;;;;;;;4.60;4.20;;;25.80;39.30;;;;;;10505138;28;20205;-82
2023/06/13 11:52:36;;;;;;;4.33;3.63;;;25.60;39.80;;;;;;10494918;28;20279;-80
2023/06/13 11:57:46;;;;;;;3.80;3.50;;;25.60;40.40;;;;;;10502010;28;20204;-81
2023/06/13 12:02:48;;;;;;;4.43;4.03;;;25.50;41.10;;;;;;10500763;28;20580;-81
2023/06/13 12:07:51;;;;;;;4.10;3.80;;;25.50;40.20;;;;;;10495177;28;20193;-81
2023/06/13 12:12:57;;;;;;;3.90;3.70;;;25.50;40.40;;;;;;10504125;28;20739;-80
2023/06/13 12:18:00;;;;;;;5.10;4.70;;;25.50;40.10;;;;;;10491818;28;20435;-81
2023/06/13 12:23:05;;;;;;;4.37;4.00;;;25.50;40.60;;;;;;10495021;28;20228;-81
2023/06/13 12:28:12;;;;;;;6.80;4.43;;;25.50;41.50;;;;;;10495168;28;20205;-80
2023/06/13 12:33:18;;;;;;;7.50;4.20;;;25.60;40.30;;;;;;10504019;28;20228;-81
2023/06/13 12:38:26;;;;;;;4.23;3.93;;;25.60;40.30;;;;;;10492252;28;20208;-80
2023/06/13 12:43:30;;;;;;;5.40;4.20;;;25.50;41.10;;;;;;10500169;28;20275;-79
2023/06/13 12:48:37;;;;;;;6.07;4.23;;;25.60;40.20;;;;;;10500020;28;20197;-79
2023/06/13 12:53:41;;;;;;;4.57;4.10;;;25.60;38.90;;;;;;10500406;28;20275;-81
2023/06/13 12:58:43;;;;;;;4.20;3.90;;;25.70;40.20;;;;;;10500161;28;20200;-78
2023/06/13 13:03:46;;;;;;;6.13;4.27;;;25.60;39.40;;;;;;10498813;28;20209;-78
2023/06/13 13:08:49;;;;;;;6.10;3.93;;;25.60;40.10;;;;;;10498250;28;20247;-79
2023/06/13 13:13:51;;;;;;;4.27;3.87;;;25.60;40.40;;;;;;10498349;28;20217;-79
2023/06/13 13:18:53;;;;;;;5.03;4.50;;;25.60;40.10;;;;;;10488566;28;20657;-80
2023/06/13 13:23:57;;;;;;;4.70;4.30;;;25.60;39.30;;;;;;10505503;28;20815;-80
2023/06/13 13:28:59;;;;;;;4.40;4.10;;;25.60;40.10;;;;;;10490792;28;20298;-79
2023/06/13 13:34:01;;;;;;;4.20;3.90;;;25.60;40.80;;;;;;10507724;28;20231;-80
2023/06/13 13:39:06;;;;;;;4.10;3.80;;;25.60;39.80;;;;;;10498228;28;20204;-81
2023/06/13 13:44:08;;;;;;;6.80;4.13;;;25.50;40.30;;;;;;10499080;28;20239;-80
2023/06/13 13:49:11;;;;;;;5.60;4.47;;;25.60;37.00;;;;;;10496329;28;20709;-79
2023/06/13 13:54:14;;;;;;;5.07;4.67;;;25.60;37.30;;;;;;10486528;28;20220;-80
2023/06/13 13:59:16;;;;;;;5.93;4.03;;;25.60;39.00;;;;;;10496950;28;20198;-80
2023/06/13 14:04:19;;;;;;;4.67;4.27;;;25.60;40.00;;;;;;10491705;28;20221;-81
2023/06/13 14:09:22;;;;;;;4.50;4.10;;;25.60;39.40;;;;;;10498373;28;20664;-81
2023/06/13 14:14:25;;;;;;;4.30;4.00;;;25.60;39.70;;;;;;10489098;28;20593;-81
2023/06/13 14:19:27;;;;;;;4.17;3.87;;;25.70;39.60;;;;;;10499641;28;20201;-81
2023/06/13 14:24:30;;;;;;;4.20;3.90;;;25.60;40.10;;;;;;10498898;28;20214;-80
2023/06/13 14:29:32;;;;;;;5.33;4.57;;;25.60;39.80;;;;;;10472889;28;20620;-80
2023/06/13 14:34:34;;;;;;;4.70;4.30;;;25.70;39.90;;;;;;10503558;28;20305;-81
2023/06/13 14:39:38;;;;;;;5.23;3.93;;;25.80;38.30;;;;;;10491079;28;20787;-80
2023/06/13 14:44:42;;;;;;;5.47;4.87;;;25.80;39.20;;;;;;10497143;28;20234;-81
2023/06/13 14:49:44;;;;;;;4.63;4.20;;;25.80;38.80;;;;;;10499315;28;20213;-81
2023/06/13 14:54:47;;;;;;;4.47;4.07;;;25.80;39.10;;;;;;10497644;28;20224;-81
2023/06/13 14:59:50;;;;;;;5.03;4.33;;;25.70;36.90;;;;;;10503157;28;20193;-80
2023/06/13 15:04:52;;;;;;;4.70;4.30;;;25.70;37.70;;;;;;10503821;28;20232;-81
2023/06/13 15:09:55;;;;;;;4.80;4.50;;;25.60;38.20;;;;;;10491202;28;20209;-80
2023/06/13 15:14:57;;;;;;;5.60;5.10;;;25.70;39.30;;;;;;10503579;28;20237;-81
2023/06/13 15:19:59;;;;;;;5.00;4.60;;;25.60;38.50;;;;;;10501958;28;20197;-81
2023/06/13 15:25:03;;;;;;;5.70;3.93;;;25.60;38.40;;;;;;10500646;28;20564;-80
2023/06/13 15:30:08;;;;;;;13.33;5.27;;;25.60;39.60;;;;;;10500519;28;20217;-79
2023/06/13 15:35:10;;;;;;;6.70;4.70;;;25.60;37.30;;;;;;10491640;28;20221;-80
2023/06/13 15:40:15;;;;;;;5.30;4.90;;;25.60;38.20;;;;;;10493480;28;20202;-79
2023/06/13 15:45:17;;;;;;;5.00;4.50;;;25.60;37.30;;;;;;10521454;22;20229;-82
2023/06/13 15:50:20;;;;;;;4.53;4.23;;;25.50;39.40;;;;;;10550398;28;20785;-83
2023/06/13 15:55:23;;;;;;;6.73;5.00;;;25.50;37.90;;;;;;10548641;28;20420;-84
2023/06/13 16:00:25;;;;;;;4.20;3.90;;;25.50;39.40;;;;;;10514331;28;20192;-84
2023/06/13 16:05:28;;;;;;;5.27;4.40;;;25.40;39.20;;;;;;10515691;28;20231;-85
2023/06/13 16:10:32;;;;;;;4.77;4.30;;;25.40;37.60;;;;;;10526715;28;20217;-84
2023/06/13 16:15:34;;;;;;;4.50;4.10;;;25.40;38.10;;;;;;10527486;28;20228;-84
2023/06/13 16:20:37;;;;;;;4.13;3.83;;;25.50;38.40;;;;;;10531418;28;20200;-83
2023/06/13 16:25:40;;;;;;;4.40;4.10;;;25.50;38.10;;;;;;10507134;28;20216;-84
2023/06/13 16:30:42;;;;;;;5.00;4.03;;;25.60;38.90;;;;;;10524482;28;20226;-85
2023/06/13 16:35:44;;;;;;;4.87;3.90;;;25.60;39.80;;;;;;10526345;28;20228;-84
2023/06/13 16:40:48;;;;;;;4.90;4.50;;;25.50;38.30;;;;;;10502292;28;20197;-85
2023/06/13 16:45:50;;;;;;;4.73;4.33;;;25.50;38.40;;;;;;10511468;28;20248;-84
2023/06/13 16:50:52;;;;;;;4.90;4.50;;;25.60;38.80;;;;;;10538788;28;20212;-85
2023/06/13 16:55:55;;;;;;;8.27;4.33;;;25.50;39.00;;;;;;10529542;28;20223;-85
2023/06/13 17:00:58;;;;;;;4.83;4.33;;;25.50;39.40;;;;;;10504696;28;20220;-86
2023/06/13 17:06:01;;;;;;;4.57;4.27;;;25.50;38.70;;;;;;10526264;28;20220;-85
2023/06/13 17:11:04;;;;;;;4.67;4.37;;;25.50;39.40;;;;;;10503214;28;20821;-85
2023/06/13 17:16:06;;;;;;;4.90;4.40;;;25.50;38.30;;;;;;10518078;28;20220;-85
2023/06/13 17:21:09;;;;;;;5.70;4.40;;;25.50;39.20;;;;;;10520157;28;20188;-85
2023/06/13 17:26:12;;;;;;;4.83;4.43;;;25.40;40.00;;;;;;10517507;28;20219;-84
2023/06/13 17:31:14;;;;;;;4.47;4.07;;;25.30;39.00;;;;;;10524783;28;20213;-85
2023/06/13 17:36:16;;;;;;;4.67;4.37;;;25.30;38.60;;;;;;10518996;28;20220;-85
2023/06/13 17:41:20;;;;;;;4.20;3.90;;;25.30;39.20;;;;;;10542816;28;20616;-83
2023/06/13 17:46:22;;;;;;;5.03;4.70;;;25.30;38.50;;;;;;10519495;28;20311;-85
2023/06/13 17:51:24;;;;;;;5.20;4.80;;;25.20;38.60;;;;;;10533532;28;20588;-85
2023/06/13 17:56:27;;;;;;;5.27;4.87;;;25.10;39.00;;;;;;10524038;28;20212;-84
2023/06/13 18:01:29;;;;;;;5.40;4.47;;;25.10;39.00;;;;;;10530330;28;20192;-85
2023/06/13 18:06:31;;;;;;;4.83;4.20;;;25.10;40.50;;;;;;10485678;28;20217;-84
2023/06/13 18:11:35;;;;;;;7.93;4.50;;;25.00;40.50;;;;;;10499427;28;20223;-85
2023/06/13 18:16:37;;;;;;;4.90;4.60;;;25.00;42.00;;;;;;10496528;28;21807;-85
2023/06/13 18:21:40;;;;;;;4.30;4.00;;;24.90;40.70;;;;;;10518005;28;20221;-84
2023/06/13 18:26:43;;;;;;;5.77;4.53;;;24.80;40.50;;;;;;10528069;28;20425;-84
2023/06/13 18:31:46;;;;;;;8.73;4.80;;;24.80;39.20;;;;;;10534603;28;20230;-84
2023/06/13 18:36:48;;;;;;;4.07;3.67;;;24.70;39.20;;;;;;10534773;28;20216;-84
2023/06/13 18:41:51;;;;;;;6.73;5.10;;;24.60;40.00;;;;;;10522895;28;20189;-85
2023/06/13 18:46:53;;;;;;;5.03;4.63;;;24.50;38.40;;;;;;10530426;28;20231;-84
2023/06/13 18:51:56;;;;;;;4.47;4.00;;;24.40;40.80;;;;;;10538090;28;20654;-84
2023/06/13 18:57:00;;;;;;;5.20;4.67;;;24.30;40.10;;;;;;10541447;28;20683;-83
2023/06/13 19:02:02;;;;;;;4.70;4.30;;;24.30;40.40;;;;;;10493633;28;20196;-85
2023/06/13 19:07:05;;;;;;;4.97;4.57;;;24.20;41.00;;;;;;10525683;28;20685;-85
2023/06/13 19:12:09;;;;;;;4.90;4.50;;;24.10;42.00;;;;;;10525248;28;20667;-85
2023/06/13 19:17:11;;;;;;;6.30;4.73;;;24.10;41.60;;;;;;10523897;28;20218;-85
2023/06/13 19:22:13;;;;;;;5.80;5.30;;;23.90;43.10;;;;;;10528331;28;20181;-85
2023/06/13 19:27:17;;;;;;;7.80;5.37;;;23.90;43.60;;;;;;10511289;28;20208;-85
2023/06/13 19:32:19;;;;;;;5.03;4.57;;;23.70;43.60;;;;;;10530177;28;20223;-84
2023/06/13 19:37:22;;;;;;;6.53;6.03;;;23.60;44.30;;;;;;10496472;28;20267;-85
2023/06/13 19:42:26;;;;;;;5.20;4.70;;;23.50;44.70;;;;;;10519567;28;20220;-85
2023/06/13 19:47:28;;;;;;;4.83;4.43;;;23.30;45.40;;;;;;10519216;28;20730;-84
2023/06/13 19:52:30;;;;;;;5.73;4.90;;;23.20;44.80;;;;;;10524383;28;20254;-85
2023/06/13 19:57:34;;;;;;;5.87;5.20;;;23.00;45.70;;;;;;10510972;28;20734;-85
2023/06/13 20:02:36;;;;;;;5.53;5.03;;;22.90;45.00;;;;;;10488495;28;20228;-83
2023/06/13 20:07:40;;;;;;;5.73;5.23;;;22.80;46.00;;;;;;10521836;28;20239;-80
2023/06/13 20:12:43;;;;;;;5.20;4.80;;;22.70;45.20;;;;;;10533641;28;20223;-84
2023/06/13 20:17:45;;;;;;;5.30;5.00;;;22.60;45.00;;;;;;10547456;28;20240;-83
2023/06/13 20:22:48;;;;;;;4.50;4.20;;;22.50;45.10;;;;;;10507310;28;20217;-83
2023/06/13 20:27:51;;;;;;;4.73;4.33;;;22.40;45.20;;;;;;10512258;28;20240;-84
2023/06/13 20:32:53;;;;;;;5.77;4.93;;;22.30;44.70;;;;;;10534306;28;20605;-84
2023/06/13 20:37:56;;;;;;;4.90;4.50;;;22.20;44.70;;;;;;10531999;28;20246;-84
2023/06/13 20:43:01;;;;;;;6.00;5.47;;;22.10;46.30;;;;;;10528843;28;20189;-83
2023/06/13 20:48:04;;;;;;;5.63;4.90;;;22.00;45.90;;;;;;10528511;28;20225;-81
2023/06/13 20:53:06;;;;;;;4.73;4.37;;;22.00;46.00;;;;;;10511598;28;20217;-82
2023/06/13 20:58:10;;;;;;;4.70;4.30;;;21.90;46.80;;;;;;10510329;28;20221;-82
2023/06/13 21:03:16;;;;;;;5.10;4.70;;;21.80;46.60;;;;;;10503319;28;20193;-82
2023/06/13 21:08:18;;;;;;;5.17;4.77;;;21.70;47.10;;;;;;10517969;28;20271;-82
2023/06/13 21:13:21;;;;;;;4.90;4.50;;;21.70;47.30;;;;;;10499937;28;20472;-83
2023/06/13 21:18:23;;;;;;;4.57;4.23;;;21.60;47.40;;;;;;10523680;28;20236;-83
2023/06/13 21:23:26;;;;;;;4.80;4.50;;;21.50;47.30;;;;;;10504374;28;20193;-82
2023/06/13 21:28:29;;;;;;;4.43;4.03;;;21.40;46.50;;;;;;10506271;28;20717;-83
2023/06/13 21:33:32;;;;;;;4.70;4.40;;;21.40;47.70;;;;;;10519011;28;20229;-84
2023/06/13 21:38:35;;;;;;;4.60;4.20;;;21.30;47.40;;;;;;10521152;28;20238;-84
2023/06/13 21:43:38;;;;;;;4.23;3.93;;;21.20;47.70;;;;;;10539071;28;20193;-83
2023/06/13 21:48:42;;;;;;;5.47;4.70;;;21.10;47.20;;;;;;10525701;28;20228;-83
2023/06/13 21:53:44;;;;;;;4.73;4.40;;;21.00;47.50;;;;;;10513124;28;20227;-82
2023/06/13 21:58:48;;;;;;;4.60;4.20;;;20.90;47.50;;;;;;10523920;28;20221;-83
2023/06/13 22:03:50;;;;;;;4.73;4.27;;;20.90;47.60;;;;;;10534974;28;20184;-83
2023/06/13 22:08:53;;;;;;;4.43;4.13;;;20.80;47.90;;;;;;10522814;28;20212;-83
2023/06/13 22:13:57;;;;;;;5.17;4.67;;;20.70;49.20;;;;;;10537938;28;20632;-83
2023/06/13 22:18:59;;;;;;;5.53;4.80;;;20.70;49.10;;;;;;10537256;28;20729;-82
2023/06/13 22:24:01;;;;;;;4.73;4.23;;;20.60;48.20;;;;;;10520321;28;20189;-81
2023/06/13 22:29:05;;;;;;;6.07;4.50;;;20.60;48.40;;;;;;10517625;28;20305;-82
2023/06/13 22:34:07;;;;;;;4.80;4.40;;;20.50;49.50;;;;;;10536103;28;20213;-82
2023/06/13 22:39:10;;;;;;;5.30;4.90;;;20.40;49.40;;;;;;10511425;28;20212;-82
2023/06/13 22:44:14;;;;;;;4.47;4.07;;;20.40;48.80;;;;;;10526686;28;20195;-82
2023/06/13 22:49:16;;;;;;;4.87;4.40;;;20.40;48.30;;;;;;10522882;28;20192;-83
2023/06/13 22:54:18;;;;;;;5.30;4.90;;;20.30;48.10;;;;;;10546130;28;20266;-83
2023/06/13 22:59:22;;;;;;;5.00;4.60;;;20.20;48.90;;;;;;10518128;28;20672;-82
2023/06/13 23:04:24;;;;;;;5.13;4.53;;;20.10;49.30;;;;;;10520149;28;20207;-83
2023/06/13 23:09:26;;;;;;;5.10;4.60;;;20.00;49.80;;;;;;10531337;28;20205;-83
2023/06/13 23:14:30;;;;;;;5.83;4.97;;;20.00;49.50;;;;;;10511688;28;20251;-83
2023/06/13 23:19:32;;;;;;;5.37;4.87;;;19.90;50.40;;;;;;10514333;28;20268;-81
2023/06/13 23:24:34;;;;;;;6.97;5.43;;;19.90;50.40;;;;;;10507640;28;20623;-82
2023/06/13 23:29:38;;;;;;;5.10;4.70;;;19.80;50.70;;;;;;10512949;28;20284;-83
2023/06/13 23:34:44;;;;;;;8.73;5.03;;;19.80;51.40;;;;;;10517134;28;20225;-82
2023/06/13 23:39:47;;;;;;;5.93;5.37;;;19.70;51.70;;;;;;10514590;28;20676;-81
2023/06/13 23:44:50;;;;;;;5.83;5.33;;;19.70;50.50;;;;;;10507733;28;20696;-83
2023/06/13 23:49:52;;;;;;;7.73;5.90;;;19.70;51.70;;;;;;10529460;28;20680;-82
2023/06/13 23:54:54;;;;;;;8.77;5.80;;;19.80;51.60;;;;;;10536292;28;20221;-83
2023/06/13 23:59:58;;;;;;;5.80;5.33;;;19.80;52.00;;;;;;10521174;28;20260;-83
